Time;durP1;ratioP1;P1;durP2;ratioP2;P2;SDS_P1;SDS_P2;PMS_P1;PMS_P2;Temp;Humidity;BMP_temperature;BMP_pressure;BME280_temperature;BME280_humidity;BME280_pressure;Samples;Min_cycle;Max_cycle;Signal;HPM_P1;HPM_P2
2023/07/27 00:01:29;;;;;;;1.33;1.13;;;13.60;99.90;;;;;;5033498;28;20466;-81
2023/07/27 00:03:56;;;;;;;2.37;0.83;;;13.60;99.90;;;;;;5033233;28;20442;-81
2023/07/27 00:06:22;;;;;;;3.43;1.33;;;13.60;99.90;;;;;;5033248;28;20442;-80
2023/07/27 00:08:50;;;;;;;1.47;0.93;;;13.50;99.90;;;;;;5033474;28;20435;-81
2023/07/27 00:11:17;;;;;;;0.93;0.93;;;13.40;99.90;;;;;;5033130;28;20486;-82
2023/07/27 00:13:44;;;;;;;1.20;0.80;;;13.40;99.90;;;;;;5033094;28;20482;-81
2023/07/27 00:16:11;;;;;;;1.20;1.10;;;13.40;99.90;;;;;;5033230;28;20470;-81
2023/07/27 00:18:37;;;;;;;0.90;0.90;;;13.40;99.90;;;;;;5033347;28;20454;-81
2023/07/27 00:21:04;;;;;;;1.17;1.07;;;13.40;99.90;;;;;;5032973;28;20478;-81
2023/07/27 00:23:31;;;;;;;1.13;0.90;;;13.40;99.90;;;;;;5033262;28;20458;-80
2023/07/27 00:25:59;;;;;;;0.90;0.77;;;13.40;99.90;;;;;;5032747;28;21002;-80
2023/07/27 00:28:25;;;;;;;2.07;0.90;;;13.40;99.90;;;;;;5033262;28;20450;-81
2023/07/27 00:30:53;;;;;;;1.13;0.80;;;13.50;99.90;;;;;;5032894;28;20462;-81
2023/07/27 00:33:20;;;;;;;1.13;0.80;;;13.60;99.90;;;;;;5033154;28;20482;-80
2023/07/27 00:35:54;;;;;;;1.10;1.00;;;13.60;99.90;;;;;;5036272;28;20445;-81
2023/07/27 00:38:21;;;;;;;1.00;0.60;;;13.60;99.90;;;;;;5037025;28;20437;-81
2023/07/27 00:40:48;;;;;;;1.10;0.70;;;13.60;99.90;;;;;;5037158;28;20449;-81
2023/07/27 00:43:16;;;;;;;5.30;1.70;;;13.60;99.90;;;;;;5036902;28;20450;-81
2023/07/27 00:45:43;;;;;;;1.87;0.90;;;13.60;99.90;;;;;;5037180;28;20533;-81
2023/07/27 00:48:10;;;;;;;0.73;0.70;;;13.60;99.90;;;;;;5037070;28;20447;-81
2023/07/27 00:50:37;;;;;;;2.57;1.00;;;13.60;99.90;;;;;;5036724;28;20438;-81
2023/07/27 00:53:06;;;;;;;0.90;0.90;;;13.60;99.90;;;;;;5036908;28;20493;-81
2023/07/27 00:55:33;;;;;;;2.90;1.27;;;13.60;99.90;;;;;;5036953;28;20438;-81
2023/07/27 00:58:00;;;;;;;2.70;1.20;;;13.50;99.90;;;;;;5036909;28;20454;-81
2023/07/27 01:00:30;;;;;;;0.67;0.67;;;13.50;99.90;;;;;;5036824;28;20438;-81
2023/07/27 01:02:57;;;;;;;1.63;1.17;;;13.50;99.90;;;;;;5037629;28;20435;-81
2023/07/27 01:05:24;;;;;;;3.13;1.13;;;13.50;99.90;;;;;;5036779;28;20538;-81
2023/07/27 01:07:51;;;;;;;5.93;0.80;;;13.50;99.90;;;;;;5036738;28;20457;-81
2023/07/27 01:10:18;;;;;;;1.17;1.07;;;13.50;99.90;;;;;;5036683;28;20453;-80
2023/07/27 01:12:50;;;;;;;0.97;0.60;;;13.50;99.90;;;;;;5036517;28;20497;-81
2023/07/27 01:15:20;;;;;;;0.70;0.70;;;13.40;99.90;;;;;;5036332;28;20442;-81
2023/07/27 01:17:53;;;;;;;3.03;1.03;;;13.40;99.90;;;;;;5036392;28;20407;-81
2023/07/27 01:20:26;;;;;;;1.20;0.90;;;13.40;99.90;;;;;;5036224;28;20442;-81
2023/07/27 01:23:19;;;;;;;1.97;0.87;;;13.30;99.90;;;;;;5036390;28;20463;-81
2023/07/27 01:26:23;;;;;;;1.10;0.90;;;13.30;99.90;;;;;;5036128;28;20493;-81
2023/07/27 01:29:02;;;;;;;0.80;0.80;;;13.30;99.90;;;;;;5036253;28;20454;-81
2023/07/27 01:31:40;;;;;;;1.83;0.83;;;13.30;99.90;;;;;;5036274;28;20477;-81
2023/07/27 01:34:11;;;;;;;0.90;0.70;;;13.30;99.90;;;;;;5036239;28;20470;-81
2023/07/27 01:36:41;;;;;;;5.93;1.50;;;13.30;99.90;;;;;;5036035;28;20411;-81
2023/07/27 01:39:12;;;;;;;0.97;0.90;;;13.30;99.90;;;;;;5035904;28;20430;-81
2023/07/27 01:41:42;;;;;;;0.83;0.83;;;13.30;99.90;;;;;;5036016;28;20550;-81
2023/07/27 01:44:10;;;;;;;1.87;0.87;;;13.30;99.90;;;;;;5036192;28;20431;-81
2023/07/27 01:46:40;;;;;;;1.60;0.80;;;13.20;99.90;;;;;;5034562;28;20943;-81
2023/07/27 01:49:09;;;;;;;1.60;1.30;;;13.20;99.90;;;;;;5035709;28;20431;-81
2023/07/27 01:51:38;;;;;;;1.30;1.00;;;13.20;99.90;;;;;;5035857;28;20510;-81
2023/07/27 01:54:06;;;;;;;1.00;0.90;;;13.30;99.90;;;;;;5035790;28;20485;-81
2023/07/27 01:56:34;;;;;;;2.97;0.77;;;13.20;99.90;;;;;;5035648;28;20761;-81
2023/07/27 01:59:02;;;;;;;1.30;1.20;;;13.10;99.90;;;;;;5035810;28;20434;-81
2023/07/27 02:01:30;;;;;;;1.23;1.07;;;13.10;99.90;;;;;;5035372;28;21012;-80
2023/07/27 02:03:58;;;;;;;2.63;0.80;;;13.10;99.90;;;;;;5035708;28;20447;-81
2023/07/27 02:06:25;;;;;;;0.80;0.80;;;13.00;99.90;;;;;;5035652;28;20820;-80
2023/07/27 02:08:52;;;;;;;1.37;0.80;;;13.10;99.90;;;;;;5035390;28;20439;-80
2023/07/27 02:11:20;;;;;;;1.03;0.90;;;13.10;99.90;;;;;;5035191;28;20833;-81
2023/07/27 02:13:52;;;;;;;0.80;0.80;;;13.10;99.90;;;;;;5035482;28;20487;-80
2023/07/27 02:16:28;;;;;;;1.00;1.00;;;13.10;99.90;;;;;;5035525;28;20435;-81
2023/07/27 02:18:59;;;;;;;1.00;0.87;;;13.00;99.90;;;;;;5035453;28;20434;-80
2023/07/27 02:21:28;;;;;;;2.97;1.10;;;12.90;99.90;;;;;;5035119;28;21006;-80
2023/07/27 02:23:55;;;;;;;0.97;0.87;;;12.90;99.90;;;;;;5035226;28;20443;-80
2023/07/27 02:26:22;;;;;;;1.80;0.90;;;13.00;99.90;;;;;;5035313;28;20467;-80
2023/07/27 02:28:49;;;;;;;1.20;1.10;;;13.10;99.90;;;;;;5035259;28;20569;-81
2023/07/27 02:31:16;;;;;;;0.80;0.80;;;13.10;99.90;;;;;;5035102;28;20466;-80
2023/07/27 02:33:43;;;;;;;1.30;0.93;;;13.10;99.90;;;;;;5035067;28;20488;-80
2023/07/27 02:36:11;;;;;;;0.90;0.70;;;13.10;99.90;;;;;;5034808;28;20982;-80
2023/07/27 02:38:38;;;;;;;1.20;0.90;;;13.10;99.90;;;;;;5035056;28;20812;-81
2023/07/27 02:41:05;;;;;;;1.87;1.20;;;13.20;99.90;;;;;;5034938;28;20538;-80
2023/07/27 02:43:31;;;;;;;1.33;0.70;;;13.30;99.90;;;;;;5034972;28;20446;-81
2023/07/27 02:45:59;;;;;;;1.37;0.60;;;13.30;99.90;;;;;;5034675;28;20443;-79
2023/07/27 02:48:26;;;;;;;0.80;0.80;;;13.30;99.90;;;;;;5034870;28;20455;-81
2023/07/27 02:50:53;;;;;;;9.00;0.70;;;13.40;99.90;;;;;;5035239;28;20475;-80
2023/07/27 02:53:21;;;;;;;1.23;0.87;;;13.30;99.90;;;;;;5034701;28;20482;-80
2023/07/27 02:55:58;;;;;;;0.63;0.60;;;13.30;99.90;;;;;;5034707;28;20447;-80
2023/07/27 02:58:25;;;;;;;0.60;0.60;;;13.40;99.90;;;;;;5034152;28;20435;-80
2023/07/27 03:00:53;;;;;;;1.47;0.90;;;13.30;99.90;;;;;;5034529;28;20451;-81
2023/07/27 03:03:20;;;;;;;0.77;0.70;;;13.30;99.90;;;;;;5034370;28;20509;-80
2023/07/27 03:05:46;;;;;;;1.37;0.93;;;13.30;99.90;;;;;;5034475;28;20462;-81
2023/07/27 03:08:13;;;;;;;1.47;1.33;;;13.30;99.90;;;;;;5034246;28;20431;-81
2023/07/27 03:10:41;;;;;;;2.03;1.50;;;13.30;99.90;;;;;;5034369;28;20450;-80
2023/07/27 03:13:08;;;;;;;1.33;0.90;;;13.20;99.90;;;;;;5034295;28;20457;-80
2023/07/27 03:15:40;;;;;;;0.80;0.80;;;13.30;99.90;;;;;;5034353;28;20573;-80
2023/07/27 03:18:06;;;;;;;0.90;0.90;;;13.30;99.90;;;;;;5034170;28;20455;-80
2023/07/27 03:20:38;;;;;;;2.37;0.80;;;13.30;99.90;;;;;;5034189;28;20455;-80
2023/07/27 03:23:05;;;;;;;0.70;0.70;;;13.30;99.90;;;;;;5034261;28;20441;-80
2023/07/27 03:25:32;;;;;;;1.27;0.97;;;13.30;99.90;;;;;;5033862;28;20483;-80
2023/07/27 03:28:01;;;;;;;1.00;0.90;;;13.30;99.90;;;;;;5033882;28;20518;-80
2023/07/27 03:30:27;;;;;;;1.30;0.77;;;13.30;99.90;;;;;;5033843;28;20439;-80
2023/07/27 03:32:54;;;;;;;1.67;0.67;;;13.30;99.90;;;;;;5033943;28;20470;-81
2023/07/27 03:35:21;;;;;;;1.60;1.17;;;13.30;99.90;;;;;;5033537;28;20870;-80
2023/07/27 03:37:48;;;;;;;2.60;0.93;;;13.30;99.90;;;;;;5033716;28;20442;-81
2023/07/27 03:40:14;;;;;;;1.13;1.03;;;13.30;99.90;;;;;;5033873;28;20450;-80
2023/07/27 03:42:41;;;;;;;0.90;0.80;;;13.30;99.90;;;;;;5033483;28;20471;-80
2023/07/27 03:45:11;;;;;;;1.23;0.83;;;13.30;99.90;;;;;;5033807;28;20449;-80
2023/07/27 03:47:37;;;;;;;0.60;0.60;;;13.40;99.90;;;;;;5033552;28;20447;-81
2023/07/27 03:50:05;;;;;;;0.73;0.60;;;13.40;99.90;;;;;;5033734;28;20454;-80
2023/07/27 03:52:32;;;;;;;1.00;0.70;;;13.40;99.90;;;;;;5033724;28;20466;-80
2023/07/27 03:54:58;;;;;;;0.90;0.70;;;13.40;99.90;;;;;;5033367;28;20521;-80
2023/07/27 03:57:25;;;;;;;1.10;1.03;;;13.40;99.90;;;;;;5033353;28;20457;-81
2023/07/27 03:59:55;;;;;;;2.70;1.57;;;13.40;99.90;;;;;;5033614;28;20451;-80
2023/07/27 04:02:23;;;;;;;0.73;0.73;;;13.40;99.90;;;;;;5033532;28;20498;-81
2023/07/27 04:04:51;;;;;;;0.87;0.80;;;13.50;99.90;;;;;;5033533;28;20457;-80
2023/07/27 04:07:18;;;;;;;0.73;0.73;;;13.50;99.90;;;;;;5033489;28;20439;-81
2023/07/27 04:09:45;;;;;;;0.93;0.77;;;13.60;99.90;;;;;;5032853;28;20794;-81
2023/07/27 04:12:12;;;;;;;1.00;0.90;;;13.60;99.90;;;;;;5033380;28;20471;-81
2023/07/27 04:14:39;;;;;;;1.67;0.90;;;13.50;99.90;;;;;;5033068;28;21020;-80
2023/07/27 04:17:06;;;;;;;0.87;0.70;;;13.60;99.90;;;;;;5033383;28;20454;-81
2023/07/27 04:19:35;;;;;;;1.63;0.70;;;13.60;99.90;;;;;;5033336;28;20454;-80
2023/07/27 04:22:02;;;;;;;1.53;0.80;;;13.50;99.90;;;;;;5032956;28;20974;-80
2023/07/27 04:24:29;;;;;;;0.80;0.60;;;13.60;99.90;;;;;;5033308;28;20443;-80
2023/07/27 04:26:56;;;;;;;7.20;0.93;;;13.60;99.90;;;;;;5032987;28;20497;-80
2023/07/27 04:29:22;;;;;;;1.00;0.90;;;13.60;99.90;;;;;;5033235;28;20457;-80
2023/07/27 04:31:49;;;;;;;2.33;0.80;;;13.60;99.90;;;;;;5033216;28;20475;-80
2023/07/27 04:34:16;;;;;;;0.80;0.80;;;13.60;99.90;;;;;;5032798;28;21024;-80
2023/07/27 04:36:47;;;;;;;4.23;1.10;;;13.70;99.90;;;;;;5032873;28;20454;-80
2023/07/27 04:39:14;;;;;;;0.70;0.70;;;13.70;99.90;;;;;;5032888;28;20957;-80
2023/07/27 04:41:41;;;;;;;0.77;0.67;;;13.70;99.90;;;;;;5032782;28;20966;-80
2023/07/27 04:44:07;;;;;;;1.57;0.80;;;13.70;99.90;;;;;;5033153;28;20447;-81
2023/07/27 04:46:34;;;;;;;0.87;0.60;;;13.70;99.90;;;;;;5032821;28;20435;-80
2023/07/27 04:49:01;;;;;;;1.63;1.53;;;13.80;99.90;;;;;;5033113;28;20447;-81
2023/07/27 04:51:28;;;;;;;2.17;1.23;;;13.80;99.90;;;;;;5033057;28;20529;-81
2023/07/27 04:53:56;;;;;;;0.90;0.90;;;13.80;99.90;;;;;;5032917;28;20517;-81
2023/07/27 04:56:23;;;;;;;2.00;0.83;;;13.90;99.90;;;;;;5033072;28;20435;-81
2023/07/27 04:58:50;;;;;;;0.87;0.87;;;13.90;99.90;;;;;;5032656;28;20989;-80
2023/07/27 05:01:17;;;;;;;2.00;1.13;;;13.90;99.90;;;;;;5032871;28;20466;-80
2023/07/27 05:03:44;;;;;;;1.50;1.10;;;13.90;99.90;;;;;;5032614;28;20459;-81
2023/07/27 05:06:11;;;;;;;1.50;1.03;;;13.90;99.90;;;;;;5032678;28;20435;-81
2023/07/27 05:08:37;;;;;;;1.00;0.90;;;14.00;99.90;;;;;;5032918;28;20454;-80
2023/07/27 05:11:06;;;;;;;1.70;0.70;;;14.00;99.90;;;;;;5032748;28;20481;-81
2023/07/27 05:13:33;;;;;;;0.93;0.90;;;14.10;99.90;;;;;;5032760;28;20446;-81
2023/07/27 05:16:01;;;;;;;1.77;1.30;;;14.10;99.90;;;;;;5032543;28;20534;-80
2023/07/27 05:18:27;;;;;;;0.70;0.70;;;14.10;99.90;;;;;;5032849;28;20447;-81
2023/07/27 05:20:55;;;;;;;1.40;0.63;;;14.20;99.90;;;;;;5034190;28;20811;-81
2023/07/27 05:23:22;;;;;;;1.23;0.80;;;14.20;99.90;;;;;;5036241;28;20431;-80
2023/07/27 05:25:49;;;;;;;3.60;1.03;;;14.20;99.90;;;;;;5035941;28;20485;-80
2023/07/27 05:28:17;;;;;;;1.00;1.00;;;14.30;99.90;;;;;;5036114;28;20441;-80
2023/07/27 05:30:44;;;;;;;0.70;0.60;;;14.30;99.90;;;;;;5036290;28;20442;-80
2023/07/27 05:33:11;;;;;;;0.77;0.73;;;14.30;99.90;;;;;;5036050;28;20435;-81
2023/07/27 05:35:38;;;;;;;1.10;0.67;;;14.30;99.90;;;;;;5036133;28;20474;-81
2023/07/27 05:38:04;;;;;;;1.27;0.80;;;14.30;99.90;;;;;;5035942;28;20438;-81
2023/07/27 05:40:31;;;;;;;0.80;0.80;;;14.30;99.90;;;;;;5036188;28;20537;-81
2023/07/27 05:42:58;;;;;;;1.00;0.70;;;14.30;99.90;;;;;;5036150;28;20450;-81
2023/07/27 05:45:26;;;;;;;5.07;0.90;;;14.30;99.90;;;;;;5035749;28;20938;-80
2023/07/27 05:47:52;;;;;;;1.90;1.00;;;14.40;99.90;;;;;;5035690;28;20907;-80
2023/07/27 05:50:18;;;;;;;0.97;0.80;;;14.40;99.90;;;;;;5035935;28;20530;-81
2023/07/27 05:52:45;;;;;;;0.80;0.60;;;14.40;99.90;;;;;;5035959;28;20242;-81
2023/07/27 05:55:12;;;;;;;1.20;1.00;;;14.50;99.90;;;;;;5035522;28;20487;-81
2023/07/27 05:57:41;;;;;;;1.00;1.00;;;14.40;99.90;;;;;;5035862;28;20458;-81
2023/07/27 06:00:09;;;;;;;2.20;0.90;;;14.50;99.90;;;;;;5035808;28;20449;-81
2023/07/27 06:02:37;;;;;;;0.80;0.80;;;14.50;99.90;;;;;;5035681;28;20485;-81
2023/07/27 06:05:04;;;;;;;0.97;0.90;;;14.50;99.90;;;;;;5035601;28;20451;-81
2023/07/27 06:07:32;;;;;;;3.00;1.03;;;14.50;99.90;;;;;;5035652;28;20446;-81
2023/07/27 06:09:58;;;;;;;1.20;1.10;;;14.50;99.90;;;;;;5035610;28;20474;-81
2023/07/27 06:12:25;;;;;;;3.83;1.27;;;14.60;99.90;;;;;;5035468;28;20467;-81
2023/07/27 06:14:52;;;;;;;1.20;0.70;;;14.60;99.90;;;;;;5035513;28;20475;-81
2023/07/27 06:17:19;;;;;;;1.13;0.87;;;14.60;99.90;;;;;;5035245;28;20829;-81
2023/07/27 06:19:47;;;;;;;0.63;0.63;;;14.70;99.90;;;;;;5035500;28;20443;-83
2023/07/27 06:22:14;;;;;;;0.83;0.60;;;14.70;99.90;;;;;;5035387;28;20451;-82
2023/07/27 06:24:41;;;;;;;2.37;0.70;;;14.80;99.90;;;;;;5035353;28;20538;-81
2023/07/27 06:27:07;;;;;;;0.70;0.70;;;14.70;99.90;;;;;;5034865;28;20482;-81
2023/07/27 06:29:34;;;;;;;1.17;1.00;;;14.70;99.90;;;;;;5035013;28;20799;-82
2023/07/27 06:32:01;;;;;;;1.00;1.00;;;14.70;99.90;;;;;;5034472;28;20994;-81
2023/07/27 06:34:28;;;;;;;1.67;1.10;;;14.70;99.90;;;;;;5035177;28;20473;-81
2023/07/27 06:36:56;;;;;;;2.13;0.80;;;14.60;99.90;;;;;;5034844;28;20431;-81
2023/07/27 06:39:22;;;;;;;1.13;1.00;;;14.60;99.90;;;;;;5035090;28;20442;-81
2023/07/27 06:41:49;;;;;;;0.67;0.67;;;14.70;99.90;;;;;;5034655;28;20986;-81
2023/07/27 06:44:16;;;;;;;0.60;0.60;;;14.70;99.90;;;;;;5034971;28;20451;-81
2023/07/27 06:46:43;;;;;;;1.60;1.37;;;14.70;99.90;;;;;;5035186;28;20458;-81
2023/07/27 06:49:10;;;;;;;1.33;1.23;;;14.70;99.90;;;;;;5034891;28;20460;-81
2023/07/27 06:51:37;;;;;;;1.37;0.80;;;14.80;99.90;;;;;;5034783;28;20471;-82
2023/07/27 06:54:05;;;;;;;1.37;1.17;;;14.80;99.90;;;;;;5034460;28;20443;-82
2023/07/27 06:56:32;;;;;;;0.93;0.80;;;14.70;99.90;;;;;;5034847;28;20505;-82
2023/07/27 06:58:59;;;;;;;1.07;1.07;;;14.70;99.90;;;;;;5034557;28;20474;-82
2023/07/27 07:01:26;;;;;;;0.93;0.87;;;14.80;99.90;;;;;;5034530;28;20459;-82
2023/07/27 07:03:53;;;;;;;1.90;0.73;;;14.90;99.90;;;;;;5034603;28;20447;-82
2023/07/27 07:06:20;;;;;;;1.10;0.90;;;14.90;99.90;;;;;;5034539;28;20454;-82
2023/07/27 07:08:47;;;;;;;0.83;0.83;;;14.90;99.90;;;;;;5034489;28;20453;-83
2023/07/27 07:11:15;;;;;;;0.73;0.70;;;14.90;99.90;;;;;;5034356;28;20477;-83
2023/07/27 07:13:42;;;;;;;0.67;0.67;;;14.90;99.90;;;;;;5034114;28;20456;-82
2023/07/27 07:16:09;;;;;;;1.73;0.83;;;14.90;99.90;;;;;;5034287;28;20486;-82
2023/07/27 07:18:36;;;;;;;1.03;0.77;;;14.90;99.90;;;;;;5034337;28;20490;-82
2023/07/27 07:21:02;;;;;;;1.17;1.00;;;14.90;99.90;;;;;;5034158;28;20477;-81
2023/07/27 07:23:29;;;;;;;1.10;0.97;;;14.90;99.90;;;;;;5034437;28;20450;-82
2023/07/27 07:25:56;;;;;;;1.77;1.00;;;14.90;99.90;;;;;;5033959;28;20475;-82
2023/07/27 07:28:24;;;;;;;0.87;0.87;;;15.00;99.90;;;;;;5034355;28;20455;-82
2023/07/27 07:30:51;;;;;;;2.47;1.50;;;15.00;99.90;;;;;;5034255;28;20510;-83
2023/07/27 07:33:18;;;;;;;0.80;0.80;;;15.10;99.90;;;;;;5033773;28;20819;-82
2023/07/27 07:35:46;;;;;;;1.60;1.07;;;15.10;99.90;;;;;;5033799;28;20883;-82
2023/07/27 07:38:13;;;;;;;1.43;0.67;;;15.10;99.90;;;;;;5034020;28;20466;-82
2023/07/27 07:40:40;;;;;;;1.20;1.00;;;15.10;99.90;;;;;;5033861;28;20455;-82
2023/07/27 07:43:07;;;;;;;1.77;0.83;;;15.10;99.90;;;;;;5033588;28;20459;-82
2023/07/27 07:45:35;;;;;;;1.63;0.80;;;15.20;99.90;;;;;;5033212;28;20442;-82
2023/07/27 07:48:03;;;;;;;0.90;0.90;;;15.20;99.90;;;;;;5034065;28;20516;-83
2023/07/27 07:50:30;;;;;;;0.80;0.80;;;15.20;99.90;;;;;;5033778;28;20537;-82
2023/07/27 07:52:57;;;;;;;0.80;0.73;;;15.30;99.90;;;;;;5033396;28;20997;-82
2023/07/27 07:55:24;;;;;;;1.13;0.87;;;15.40;99.90;;;;;;5033278;28;20486;-82
2023/07/27 07:57:50;;;;;;;1.13;1.03;;;15.40;99.90;;;;;;5033570;28;20826;-82
2023/07/27 08:00:18;;;;;;;1.23;1.10;;;15.40;99.90;;;;;;5033918;28;20443;-82
2023/07/27 08:02:46;;;;;;;0.80;0.80;;;15.50;99.90;;;;;;5033545;28;20467;-82
2023/07/27 08:05:12;;;;;;;1.47;0.90;;;15.50;99.90;;;;;;5033245;28;20475;-81
2023/07/27 08:07:39;;;;;;;1.50;1.00;;;15.60;99.90;;;;;;5033478;28;20451;-82
2023/07/27 08:10:07;;;;;;;0.77;0.77;;;15.60;99.90;;;;;;5033453;28;20442;-83
2023/07/27 08:12:34;;;;;;;3.27;0.90;;;15.70;99.90;;;;;;5033339;28;21004;-82
2023/07/27 08:15:02;;;;;;;0.80;0.80;;;15.70;99.90;;;;;;5033928;28;20492;-82
2023/07/27 08:17:29;;;;;;;2.30;0.90;;;15.80;99.90;;;;;;5033150;28;20439;-82
2023/07/27 08:19:58;;;;;;;1.00;0.63;;;15.90;99.90;;;;;;5033349;28;21001;-82
2023/07/27 08:22:24;;;;;;;0.90;0.90;;;15.90;99.90;;;;;;5032983;28;20473;-82
2023/07/27 08:24:51;;;;;;;1.27;1.17;;;15.90;99.90;;;;;;5033325;28;20446;-82
2023/07/27 08:27:18;;;;;;;1.07;0.90;;;15.90;99.90;;;;;;5033629;28;20412;-82
2023/07/27 08:29:45;;;;;;;0.60;0.60;;;15.90;99.90;;;;;;5033200;28;20442;-82
2023/07/27 08:32:11;;;;;;;0.83;0.80;;;15.90;99.90;;;;;;5032896;28;20455;-83
2023/07/27 08:34:38;;;;;;;3.80;0.90;;;15.90;99.90;;;;;;5032858;28;20454;-83
2023/07/27 08:37:07;;;;;;;2.40;0.90;;;16.00;99.90;;;;;;5033138;28;20443;-83
2023/07/27 08:39:33;;;;;;;0.90;0.90;;;16.00;99.90;;;;;;5033012;28;20993;-82
2023/07/27 08:42:01;;;;;;;2.20;1.10;;;16.00;99.90;;;;;;5033248;28;20474;-82
2023/07/27 08:44:28;;;;;;;2.80;0.83;;;16.00;99.90;;;;;;5032784;28;20957;-82
2023/07/27 08:46:56;;;;;;;1.93;0.80;;;16.10;99.90;;;;;;5033081;28;20443;-82
2023/07/27 08:49:23;;;;;;;0.70;0.70;;;16.20;99.90;;;;;;5032806;28;20804;-82
2023/07/27 08:51:50;;;;;;;1.87;0.87;;;16.20;99.90;;;;;;5032777;28;20459;-82
2023/07/27 08:54:18;;;;;;;1.57;1.00;;;16.30;99.90;;;;;;5033032;28;20455;-82
2023/07/27 08:56:45;;;;;;;1.57;0.80;;;16.20;99.90;;;;;;5036170;28;20478;-82
2023/07/27 08:59:12;;;;;;;2.00;1.00;;;16.20;99.90;;;;;;5036695;28;20442;-82
2023/07/27 09:01:39;;;;;;;0.93;0.90;;;16.30;99.90;;;;;;5036811;28;20466;-82
2023/07/27 09:04:06;;;;;;;1.33;0.80;;;16.30;99.90;;;;;;5036859;28;20457;-82
2023/07/27 09:06:44;;;;;;;0.90;0.90;;;16.20;99.90;;;;;;5036814;28;20442;-82
2023/07/27 09:09:21;;;;;;;1.37;0.73;;;16.30;99.90;;;;;;5037548;28;20838;-82
2023/07/27 09:11:48;;;;;;;1.10;0.90;;;16.50;99.90;;;;;;5036785;28;20466;-82
2023/07/27 09:14:16;;;;;;;1.00;0.90;;;16.50;99.90;;;;;;5036896;28;20450;-81
2023/07/27 09:16:44;;;;;;;1.60;1.07;;;16.50;99.90;;;;;;5036310;28;20478;-82
2023/07/27 09:19:12;;;;;;;0.60;0.60;;;16.50;99.90;;;;;;5036587;28;20458;-82
2023/07/27 09:21:41;;;;;;;2.03;1.00;;;16.50;99.90;;;;;;5036762;28;20497;-82
2023/07/27 09:24:11;;;;;;;2.17;0.83;;;16.50;99.90;;;;;;5036473;28;20505;-81
2023/07/27 09:26:46;;;;;;;2.80;0.70;;;16.60;99.90;;;;;;5036125;28;20470;-82
2023/07/27 09:29:13;;;;;;;2.13;1.40;;;16.60;99.90;;;;;;5036520;28;20495;-82
2023/07/27 09:34:16;;;;;;;1.17;0.83;;;16.60;99.90;;;;;;5398575;22;20485;-82
2023/07/27 09:36:43;;;;;;;1.53;0.90;;;16.60;99.90;;;;;;5016395;28;20491;-82
2023/07/27 09:39:10;;;;;;;1.47;1.10;;;16.60;99.90;;;;;;5016549;28;20428;-82
2023/07/27 09:41:37;;;;;;;1.27;0.80;;;16.60;99.90;;;;;;5016993;28;20802;-82
2023/07/27 09:44:06;;;;;;;1.80;0.80;;;16.70;99.90;;;;;;5016004;28;20467;-82
2023/07/27 09:46:33;;;;;;;0.80;0.80;;;16.70;99.90;;;;;;5016316;28;20443;-82
2023/07/27 09:49:00;;;;;;;0.90;0.90;;;16.60;99.90;;;;;;5016482;28;20478;-82
2023/07/27 09:51:27;;;;;;;0.53;0.53;;;16.50;99.90;;;;;;5016194;28;20459;-82
2023/07/27 09:53:55;;;;;;;0.73;0.73;;;16.50;99.90;;;;;;5016113;28;20509;-82
2023/07/27 09:56:22;;;;;;;4.40;0.90;;;16.30;99.90;;;;;;5015785;28;20491;-82
2023/07/27 09:58:49;;;;;;;2.00;0.97;;;16.30;99.90;;;;;;5016593;28;20454;-79
2023/07/27 10:01:17;;;;;;;0.90;0.70;;;16.30;99.90;;;;;;5016009;28;20451;-81
2023/07/27 10:03:45;;;;;;;3.60;0.87;;;16.30;99.90;;;;;;5015884;28;20456;-85
2023/07/27 10:06:13;;;;;;;0.80;0.73;;;16.40;99.90;;;;;;5016550;28;20810;-88
2023/07/27 10:08:42;;;;;;;0.90;0.90;;;16.40;99.90;;;;;;5015162;28;20455;-85
2023/07/27 10:11:09;;;;;;;2.20;0.80;;;16.40;99.90;;;;;;5016058;28;20458;-86
2023/07/27 10:13:40;;;;;;;0.80;0.80;;;16.50;99.90;;;;;;5015759;28;20478;-82
2023/07/27 10:16:10;;;;;;;1.27;0.93;;;16.50;99.90;;;;;;5015772;28;20956;-81
2023/07/27 10:18:42;;;;;;;0.70;0.60;;;16.60;99.90;;;;;;5015458;28;20990;-81
2023/07/27 10:21:34;;;;;;;0.90;0.60;;;16.70;99.90;;;;;;5015738;28;20455;-81
2023/07/27 10:24:02;;;;;;;1.17;0.80;;;16.80;99.90;;;;;;5000873;28;20937;-81
2023/07/27 10:26:46;;;;;;;1.23;0.80;;;17.00;99.90;;;;;;5015578;28;20448;-81
2023/07/27 10:29:17;;;;;;;0.60;0.53;;;17.20;99.90;;;;;;5015346;28;20471;-81
2023/07/27 10:31:45;;;;;;;1.17;0.90;;;17.30;99.90;;;;;;5015660;28;20530;-81
2023/07/27 10:34:18;;;;;;;1.83;0.77;;;17.40;99.90;;;;;;5015205;28;20483;-81
2023/07/27 10:36:53;;;;;;;0.60;0.60;;;17.40;99.90;;;;;;5015302;28;20498;-81
2023/07/27 10:39:25;;;;;;;0.97;0.87;;;17.60;99.90;;;;;;5015305;28;20451;-81
2023/07/27 10:42:04;;;;;;;0.73;0.73;;;17.70;99.90;;;;;;5015282;28;20444;-81
2023/07/27 10:44:41;;;;;;;0.70;0.70;;;18.00;99.90;;;;;;5015069;28;20479;-81
2023/07/27 10:47:09;;;;;;;1.17;0.73;;;18.20;99.90;;;;;;5015284;28;20482;-81
2023/07/27 10:49:40;;;;;;;0.60;0.60;;;18.30;99.90;;;;;;5014835;28;20971;-81
2023/07/27 10:52:08;;;;;;;1.03;0.97;;;18.30;99.90;;;;;;5015190;28;20432;-81
2023/07/27 10:54:38;;;;;;;0.73;0.73;;;18.30;99.90;;;;;;5014785;28;20458;-81
2023/07/27 10:57:07;;;;;;;0.60;0.57;;;18.30;99.90;;;;;;5015531;28;20467;-80
2023/07/27 10:59:37;;;;;;;3.70;1.20;;;18.40;99.90;;;;;;5014894;28;20444;-80
2023/07/27 11:02:08;;;;;;;1.27;1.07;;;18.60;99.90;;;;;;5014606;28;20872;-80
2023/07/27 11:04:35;;;;;;;1.80;0.83;;;18.70;99.90;;;;;;5014815;28;20487;-81
2023/07/27 11:07:05;;;;;;;3.50;0.90;;;18.90;99.90;;;;;;5014785;28;20486;-81
2023/07/27 11:09:31;;;;;;;0.70;0.70;;;19.10;99.90;;;;;;5014765;28;20471;-81
2023/07/27 11:12:00;;;;;;;1.07;0.97;;;19.30;99.90;;;;;;5014618;28;20825;-80
2023/07/27 11:14:27;;;;;;;1.30;0.60;;;19.40;99.90;;;;;;5014643;28;20471;-80
2023/07/27 11:16:54;;;;;;;0.90;0.90;;;19.50;99.90;;;;;;5014349;28;20850;-80
2023/07/27 11:19:24;;;;;;;1.13;0.80;;;19.60;99.90;;;;;;5014262;28;20417;-80
2023/07/27 11:21:51;;;;;;;5.80;0.90;;;19.60;99.90;;;;;;5014473;28;20456;-81
2023/07/27 11:24:20;;;;;;;1.03;0.90;;;19.70;99.90;;;;;;5014494;28;20939;-80
2023/07/27 11:26:47;;;;;;;0.60;0.60;;;19.60;99.90;;;;;;5014816;28;20432;-81
2023/07/27 11:29:14;;;;;;;0.67;0.67;;;19.60;99.90;;;;;;5014131;28;20932;-81
2023/07/27 11:31:52;;;;;;;1.53;1.20;;;19.50;99.90;;;;;;5014211;28;20530;-81
2023/07/27 11:34:22;;;;;;;0.60;0.60;;;19.30;99.90;;;;;;5014031;28;20475;-81
2023/07/27 11:36:52;;;;;;;0.60;0.60;;;19.20;99.90;;;;;;5014584;28;20483;-80
2023/07/27 11:39:21;;;;;;;0.87;0.70;;;19.20;99.90;;;;;;5013962;28;20940;-80
2023/07/27 11:41:49;;;;;;;1.20;0.77;;;19.20;99.90;;;;;;5013964;28;20436;-80
2023/07/27 11:44:17;;;;;;;0.70;0.70;;;19.20;99.90;;;;;;5014359;28;20471;-80
2023/07/27 11:46:47;;;;;;;4.70;0.77;;;19.20;99.90;;;;;;5014187;28;20436;-81
2023/07/27 11:49:14;;;;;;;0.93;0.70;;;19.20;99.90;;;;;;5014148;28;20436;-81
2023/07/27 11:51:41;;;;;;;1.07;0.70;;;19.20;99.90;;;;;;5013843;28;20467;-80
2023/07/27 11:54:09;;;;;;;0.70;0.70;;;19.10;99.90;;;;;;5013825;28;20475;-84
2023/07/27 11:56:38;;;;;;;0.70;0.70;;;19.10;99.90;;;;;;5013609;28;21061;-81
2023/07/27 11:59:05;;;;;;;0.50;0.50;;;19.00;99.90;;;;;;5013965;28;20458;-81
2023/07/27 12:01:34;;;;;;;0.43;0.43;;;18.90;99.90;;;;;;5013659;28;20474;-81
2023/07/27 12:04:01;;;;;;;0.70;0.70;;;18.90;99.90;;;;;;5013657;28;20456;-81
2023/07/27 12:06:29;;;;;;;1.07;0.67;;;18.90;99.90;;;;;;5013813;28;20428;-82
2023/07/27 12:08:56;;;;;;;1.03;0.70;;;18.80;99.90;;;;;;5013873;28;20506;-81
2023/07/27 12:11:26;;;;;;;0.60;0.60;;;18.70;99.90;;;;;;5013773;28;20451;-81
2023/07/27 12:13:54;;;;;;;0.60;0.60;;;18.60;99.90;;;;;;5013710;28;20533;-81
2023/07/27 12:16:20;;;;;;;0.90;0.70;;;18.40;99.90;;;;;;5013665;28;20490;-82
2023/07/27 12:18:47;;;;;;;0.63;0.63;;;18.30;99.90;;;;;;5013742;28;20435;-84
2023/07/27 12:21:15;;;;;;;0.77;0.60;;;18.20;99.90;;;;;;5013695;28;20436;-83
2023/07/27 12:23:42;;;;;;;0.60;0.60;;;18.10;99.90;;;;;;5013683;28;20475;-85
2023/07/27 12:26:09;;;;;;;1.10;0.80;;;18.00;99.90;;;;;;5013384;28;20439;-82
2023/07/27 12:28:36;;;;;;;0.70;0.70;;;17.80;99.90;;;;;;5013565;28;20498;-82
2023/07/27 12:31:04;;;;;;;1.00;0.73;;;17.80;99.90;;;;;;5012999;28;20458;-82
2023/07/27 12:33:31;;;;;;;1.23;1.00;;;17.70;99.90;;;;;;5013015;28;20766;-83
2023/07/27 12:35:58;;;;;;;2.80;0.60;;;17.70;99.90;;;;;;5013494;28;20436;-84
2023/07/27 12:38:26;;;;;;;1.97;1.10;;;17.60;99.90;;;;;;5013468;28;20462;-83
2023/07/27 12:40:52;;;;;;;2.30;0.90;;;17.50;99.90;;;;;;5013389;28;20833;-83
2023/07/27 12:43:19;;;;;;;1.10;0.87;;;17.50;99.90;;;;;;5013372;28;20479;-83
2023/07/27 12:45:46;;;;;;;1.17;0.87;;;17.50;99.90;;;;;;5013228;28;20436;-83
2023/07/27 12:48:14;;;;;;;0.97;0.97;;;17.50;99.90;;;;;;5013074;28;20507;-83
2023/07/27 12:50:41;;;;;;;1.03;0.93;;;17.60;99.90;;;;;;5013153;28;20447;-83
2023/07/27 12:53:08;;;;;;;0.70;0.67;;;17.60;99.90;;;;;;5013042;28;20968;-84
2023/07/27 12:55:35;;;;;;;2.10;0.80;;;17.60;99.90;;;;;;5013214;28;20423;-83